K.pluto — 3EYQ3 — position and weather

sailwx.info

Track history (hours):
 
Tides and Currents Weather Stations Pressure Air Temp Water Temp Dewpoint Dewpoint Depression Visibility Wind Speed Wind Dir Waves Ship Positions

K.pluto

Last reported at 2014-Oct-22 02:32 UTC. Time now 2014-Oct-24 18:12 UTC.
Position N 40°08' W 074°46'.

Length 170 m; draft 7.7 m.

Type: Cargo ship. MMSI: 373504000.

Date/timePositionNaut miles runAvg speedWind from/ knotsBaromVisibWave heightAir tempDewpointWater temp
2014-Oct-22 02:32N 40°08' W 074°46'11 7.8
2014-Oct-22 01:04N 40°02' W 074°59'8 8.1
2014-Oct-22 00:05N 39°58' W 075°08'2 0.1
2014-Oct-21 13:17N 39°56' W 075°08'0 0.0
2014-Oct-21 10:32N 39°56' W 075°08'4 0.1
2014-Oct-19 12:13N 39°53' W 075°12'710.6
2014-Oct-19 11:33N 39°51' W 075°20'1111.0
2014-Oct-19 10:33N 39°43' W 075°30'1010.1
2014-Oct-19 09:33N 39°33' W 075°32'1010.3
2014-Oct-19 08:33N 39°23' W 075°29'  
2014-Oct-16 17:19N 32°05' W 081°03'4 5.1
2014-Oct-16 16:33N 32°06' W 081°07'1 1.0
2014-Oct-16 15:33N 32°06' W 081°06'0 0.0
2014-Oct-16 14:24N 32°06' W 081°06'0 0.0
2014-Oct-16 13:24N 32°06' W 081°06'0 0.0
2014-Oct-16 12:24N 32°06' W 081°06'0 0.0
2014-Oct-16 11:30N 32°06' W 081°06'0 0.0
2014-Oct-16 10:33N 32°06' W 081°06'0 0.0
2014-Oct-16 09:33N 32°06' W 081°06'0 0.0
2014-Oct-16 08:30N 32°06' W 081°06'0 0.0
2014-Oct-16 07:33N 32°06' W 081°06'0 0.0
2014-Oct-16 06:33N 32°06' W 081°06'0 0.0
2014-Oct-16 05:33N 32°06' W 081°06'0 0.0
2014-Oct-16 04:33N 32°06' W 081°06'0 0.0
2014-Oct-16 03:33N 32°06' W 081°06'0 0.0
2014-Oct-16 02:33N 32°06' W 081°06'0 0.0
2014-Oct-16 01:33N 32°06' W 081°06'0 0.0
2014-Oct-16 00:33N 32°06' W 081°06'0 0.0
2014-Oct-15 23:21N 32°06' W 081°06'0 0.0
2014-Oct-15 22:33N 32°06' W 081°06'0 0.0
2014-Oct-15 21:33N 32°06' W 081°06'0 0.0
2014-Oct-15 20:33N 32°06' W 081°06'0 0.0
2014-Oct-15 19:30N 32°06' W 081°06'0 0.0
2014-Oct-15 18:33N 32°06' W 081°06'0 0.0
2014-Oct-15 17:30N 32°06' W 081°06'0 0.0
2014-Oct-15 16:33N 32°06' W 081°06'0 0.0
2014-Oct-15 15:30N 32°06' W 081°06'0 0.0
2014-Oct-15 14:30N 32°06' W 081°06'0 0.0
2014-Oct-15 13:33N 32°06' W 081°06'0 0.0
2014-Oct-15 12:24N 32°06' W 081°06'0 0.0
2014-Oct-15 10:27N 32°06' W 081°06'0 0.0
2014-Oct-15 08:24N 32°06' W 081°06'0 0.0
2014-Oct-15 07:18N 32°06' W 081°06'0 0.0
2014-Oct-15 06:33N 32°06' W 081°06'0 0.0
2014-Oct-15 05:33N 32°06' W 081°06'0 0.0
2014-Oct-15 04:33N 32°06' W 081°06'0 0.0
2014-Oct-15 03:33N 32°06' W 081°06'0 0.0
2014-Oct-15 02:33N 32°06' W 081°06'0 0.0
2014-Oct-15 01:33N 32°06' W 081°06'0 0.0
2014-Oct-15 00:32N 32°06' W 081°06'0 0.0
2014-Oct-14 23:33N 32°06' W 081°06'0 0.0
2014-Oct-14 22:33N 32°06' W 081°06'0 0.0
2014-Oct-14 21:33N 32°06' W 081°06'0 0.0
2014-Oct-14 20:33N 32°06' W 081°06'0 0.0
2014-Oct-14 19:32N 32°06' W 081°06'0 0.0
2014-Oct-14 18:33N 32°06' W 081°06'0 0.0
2014-Oct-14 17:33N 32°06' W 081°06'0 0.0
2014-Oct-14 16:30N 32°06' W 081°06'0 0.0
2014-Oct-14 15:33N 32°06' W 081°06'0 0.0
2014-Oct-14 14:33N 32°06' W 081°06'0 0.0
2014-Oct-14 13:33N 32°06' W 081°06'0 0.0
2014-Oct-14 12:32N 32°06' W 081°06'0 0.0
2014-Oct-14 11:33N 32°06' W 081°06'0 0.0
2014-Oct-14 10:30N 32°06' W 081°06'0 0.0
2014-Oct-14 09:33N 32°06' W 081°06'0 0.0
2014-Oct-14 08:33N 32°06' W 081°06'0 0.0
2014-Oct-14 07:30N 32°06' W 081°06'0 0.0
2014-Oct-14 06:33N 32°06' W 081°06'0 0.0
2014-Oct-14 05:32N 32°06' W 081°06'0 0.0
2014-Oct-14 04:33N 32°06' W 081°06'0 0.0
2014-Oct-14 03:32N 32°06' W 081°06'0 0.0
2014-Oct-14 02:33N 32°06' W 081°06'0 0.0
2014-Oct-14 01:29N 32°06' W 081°06'0 0.0
2014-Oct-14 00:24N 32°06' W 081°06'0 0.0
2014-Oct-13 23:33N 32°06' W 081°06'0 0.0
2014-Oct-13 22:33N 32°06' W 081°06'0 0.0
2014-Oct-13 21:33N 32°06' W 081°06'0 0.0
2014-Oct-13 20:32N 32°06' W 081°06'0 0.0
2014-Oct-13 19:32N 32°06' W 081°06'0 0.0
2014-Oct-13 18:32N 32°06' W 081°06'0 0.4
2014-Oct-13 17:32N 32°05' W 081°06'  
Track history (hours):
 
Tides and Currents Weather Stations Pressure Air Temp Water Temp Dewpoint Dewpoint Depression Visibility Wind Speed Wind Dir Waves Ship Positions

K.pluto

Last reported at 2014-Oct-22 02:32 UTC. Time now 2014-Oct-24 18:12 UTC.
Position N 40°08' W 074°46'.

Length 170 m; draft 7.7 m.

Type: Cargo ship. MMSI: 373504000.

Date/timePositionNaut miles runAvg speedWind from/ knotsBaromVisibWave heightAir tempDewpointWater temp
2014-Oct-22 02:32N 40°08' W 074°46'11 7.8
2014-Oct-22 01:04N 40°02' W 074°59'8 8.1
2014-Oct-22 00:05N 39°58' W 075°08'2 0.1
2014-Oct-21 13:17N 39°56' W 075°08'0 0.0
2014-Oct-21 10:32N 39°56' W 075°08'4 0.1
2014-Oct-19 12:13N 39°53' W 075°12'710.6
2014-Oct-19 11:33N 39°51' W 075°20'1111.0
2014-Oct-19 10:33N 39°43' W 075°30'1010.1
2014-Oct-19 09:33N 39°33' W 075°32'1010.3
2014-Oct-19 08:33N 39°23' W 075°29'  
2014-Oct-16 17:19N 32°05' W 081°03'4 5.1
2014-Oct-16 16:33N 32°06' W 081°07'1 1.0
2014-Oct-16 15:33N 32°06' W 081°06'0 0.0
2014-Oct-16 14:24N 32°06' W 081°06'0 0.0
2014-Oct-16 13:24N 32°06' W 081°06'0 0.0
2014-Oct-16 12:24N 32°06' W 081°06'0 0.0
2014-Oct-16 11:30N 32°06' W 081°06'0 0.0
2014-Oct-16 10:33N 32°06' W 081°06'0 0.0
2014-Oct-16 09:33N 32°06' W 081°06'0 0.0
2014-Oct-16 08:30N 32°06' W 081°06'0 0.0
2014-Oct-16 07:33N 32°06' W 081°06'0 0.0
2014-Oct-16 06:33N 32°06' W 081°06'0 0.0
2014-Oct-16 05:33N 32°06' W 081°06'0 0.0
2014-Oct-16 04:33N 32°06' W 081°06'0 0.0
2014-Oct-16 03:33N 32°06' W 081°06'0 0.0
2014-Oct-16 02:33N 32°06' W 081°06'0 0.0
2014-Oct-16 01:33N 32°06' W 081°06'0 0.0
2014-Oct-16 00:33N 32°06' W 081°06'0 0.0
2014-Oct-15 23:21N 32°06' W 081°06'0 0.0
2014-Oct-15 22:33N 32°06' W 081°06'0 0.0
2014-Oct-15 21:33N 32°06' W 081°06'0 0.0
2014-Oct-15 20:33N 32°06' W 081°06'0 0.0
2014-Oct-15 19:30N 32°06' W 081°06'0 0.0
2014-Oct-15 18:33N 32°06' W 081°06'0 0.0
2014-Oct-15 17:30N 32°06' W 081°06'0 0.0
2014-Oct-15 16:33N 32°06' W 081°06'0 0.0
2014-Oct-15 15:30N 32°06' W 081°06'0 0.0
2014-Oct-15 14:30N 32°06' W 081°06'0 0.0
2014-Oct-15 13:33N 32°06' W 081°06'0 0.0
2014-Oct-15 12:24N 32°06' W 081°06'0 0.0
2014-Oct-15 10:27N 32°06' W 081°06'0 0.0
2014-Oct-15 08:24N 32°06' W 081°06'0 0.0
2014-Oct-15 07:18N 32°06' W 081°06'0 0.0
2014-Oct-15 06:33N 32°06' W 081°06'0 0.0
2014-Oct-15 05:33N 32°06' W 081°06'0 0.0
2014-Oct-15 04:33N 32°06' W 081°06'0 0.0
2014-Oct-15 03:33N 32°06' W 081°06'0 0.0
2014-Oct-15 02:33N 32°06' W 081°06'0 0.0
2014-Oct-15 01:33N 32°06' W 081°06'0 0.0
2014-Oct-15 00:32N 32°06' W 081°06'0 0.0
2014-Oct-14 23:33N 32°06' W 081°06'0 0.0
2014-Oct-14 22:33N 32°06' W 081°06'0 0.0
2014-Oct-14 21:33N 32°06' W 081°06'0 0.0
2014-Oct-14 20:33N 32°06' W 081°06'0 0.0
2014-Oct-14 19:32N 32°06' W 081°06'0 0.0
2014-Oct-14 18:33N 32°06' W 081°06'0 0.0
2014-Oct-14 17:33N 32°06' W 081°06'0 0.0
2014-Oct-14 16:30N 32°06' W 081°06'0 0.0
2014-Oct-14 15:33N 32°06' W 081°06'0 0.0
2014-Oct-14 14:33N 32°06' W 081°06'0 0.0
2014-Oct-14 13:33N 32°06' W 081°06'0 0.0
2014-Oct-14 12:32N 32°06' W 081°06'0 0.0
2014-Oct-14 11:33N 32°06' W 081°06'0 0.0
2014-Oct-14 10:30N 32°06' W 081°06'0 0.0
2014-Oct-14 09:33N 32°06' W 081°06'0 0.0
2014-Oct-14 08:33N 32°06' W 081°06'0 0.0
2014-Oct-14 07:30N 32°06' W 081°06'0 0.0
2014-Oct-14 06:33N 32°06' W 081°06'0 0.0
2014-Oct-14 05:32N 32°06' W 081°06'0 0.0
2014-Oct-14 04:33N 32°06' W 081°06'0 0.0
2014-Oct-14 03:32N 32°06' W 081°06'0 0.0
2014-Oct-14 02:33N 32°06' W 081°06'0 0.0
2014-Oct-14 01:29N 32°06' W 081°06'0 0.0
2014-Oct-14 00:24N 32°06' W 081°06'0 0.0
2014-Oct-13 23:33N 32°06' W 081°06'0 0.0
2014-Oct-13 22:33N 32°06' W 081°06'0 0.0
2014-Oct-13 21:33N 32°06' W 081°06'0 0.0
2014-Oct-13 20:32N 32°06' W 081°06'0 0.0
2014-Oct-13 19:32N 32°06' W 081°06'0 0.0
2014-Oct-13 18:32N 32°06' W 081°06'0 0.4
2014-Oct-13 17:32N 32°05' W 081°06'  

Dump ship's entire track history